Time;durP1;ratioP1;P1;durP2;ratioP2;P2;SDS_P1;SDS_P2;PMS_P1;PMS_P2;Temp;Humidity;BMP_temperature;BMP_pressure;BME280_temperature;BME280_humidity;BME280_pressure;Samples;Min_cycle;Max_cycle;Signal;HPM_P1;HPM_P2
2022/05/15 00:01:22;;;;;;;22.13;5.90;;;;;;;12.39;70.78;101903.88;5015065;28;20190;-89
2022/05/15 00:03:48;;;;;;;24.77;5.93;;;;;;;12.36;70.88;101910.53;5014626;28;20049;-89
2022/05/15 00:06:14;;;;;;;20.65;6.05;;;;;;;12.33;70.86;101905.63;5014577;28;20014;-89
2022/05/15 00:08:39;;;;;;;23.23;5.60;;;;;;;12.24;71.42;101907.91;5014463;28;20030;-89
2022/05/15 00:11:07;;;;;;;29.90;6.13;;;;;;;12.22;71.18;101904.69;5018858;28;20450;-89
2022/05/15 00:13:33;;;;;;;23.02;5.80;;;;;;;12.17;71.15;101907.28;5018750;28;20045;-88
2022/05/15 00:15:58;;;;;;;24.73;6.28;;;;;;;12.15;71.53;101897.78;5020228;28;20029;-88
2022/05/15 00:18:24;;;;;;;26.37;6.07;;;;;;;12.10;71.50;101902.06;5018993;28;20069;-89
2022/05/15 00:20:51;;;;;;;26.35;6.25;;;;;;;12.08;71.42;101897.97;5019303;28;20022;-88
2022/05/15 00:23:18;;;;;;;21.60;6.25;;;;;;;12.05;71.80;101893.88;5016170;28;20473;-89
2022/05/15 00:25:43;;;;;;;21.20;6.28;;;;;;;11.98;71.87;101890.50;5013943;28;20181;-89
2022/05/15 00:28:09;;;;;;;25.83;6.33;;;;;;;11.97;71.98;101895.06;5013908;28;20034;-89
2022/05/15 00:30:36;;;;;;;22.63;5.90;;;;;;;11.93;72.12;101893.13;5013018;28;20026;-89
2022/05/15 00:33:03;;;;;;;24.55;5.95;;;;;;;11.89;72.42;101890.06;5012992;28;20046;-89
2022/05/15 00:35:29;;;;;;;20.75;5.97;;;;;;;11.81;72.25;101887.78;5013522;28;20080;-89
2022/05/15 00:37:55;;;;;;;25.30;6.07;;;;;;;11.82;72.70;101879.47;5013224;28;20033;-89
2022/05/15 00:40:22;;;;;;;28.47;5.93;;;;;;;11.77;72.78;101879.41;5012871;28;20034;-89
2022/05/15 00:42:56;;;;;;;20.80;6.03;;;;;;;11.81;71.69;101885.91;5012797;28;20033;-89
2022/05/15 00:45:23;;;;;;;28.95;5.40;;;;;;;11.78;72.58;101883.69;4995169;28;20034;-89
2022/05/15 00:47:48;;;;;;;21.45;5.57;;;;;;;11.76;72.79;101883.16;5012855;28;20018;-89
2022/05/15 00:50:23;;;;;;;30.50;5.33;;;;;;;11.77;72.69;101881.25;5012778;28;20045;-89
2022/05/15 00:52:54;;;;;;;29.38;5.72;;;;;;;11.73;72.45;101882.78;5012977;28;20036;-89
2022/05/15 00:55:35;;;;;;;22.77;5.70;;;;;;;11.71;71.93;101879.53;5012842;28;20034;-88
2022/05/15 00:58:08;;;;;;;25.38;6.03;;;;;;;11.66;72.75;101882.94;5013168;28;20030;-89
2022/05/15 01:00:35;;;;;;;21.38;5.47;;;;;;;11.66;72.70;101875.72;5011941;28;20061;-89
2022/05/15 01:03:08;;;;;;;22.15;5.65;;;;;;;11.62;73.18;101874.56;5012915;28;20158;-90
2022/05/15 01:05:38;;;;;;;20.55;5.80;;;;;;;11.53;73.01;101873.28;5012112;28;20026;-89
2022/05/15 01:08:04;;;;;;;27.50;5.80;;;;;;;11.54;73.46;101874.91;5012709;28;20030;-89
2022/05/15 01:10:29;;;;;;;26.97;5.80;;;;;;;11.46;73.46;101881.47;5011642;28;20327;-90
2022/05/15 01:12:58;;;;;;;27.00;6.20;;;;;;;11.46;73.59;101878.00;5012599;28;20045;-90
2022/05/15 01:15:26;;;;;;;25.73;5.50;;;;;;;11.41;73.61;101877.88;5012394;28;20060;-90
2022/05/15 01:17:53;;;;;;;23.63;6.07;;;;;;;11.41;74.00;101877.88;5012337;28;20030;-90
2022/05/15 01:20:21;;;;;;;28.70;6.72;;;;;;;11.39;74.12;101870.06;5011935;28;20030;-89
2022/05/15 01:22:47;;;;;;;21.50;5.63;;;;;;;11.35;74.17;101874.28;5012250;28;20428;-89
2022/05/15 01:25:24;;;;;;;24.17;5.80;;;;;;;11.30;73.30;101871.47;5013897;28;20022;-89
2022/05/15 01:27:59;;;;;;;19.05;5.70;;;;;;;11.34;73.83;101886.88;5012138;28;20105;-89
2022/05/15 01:30:24;;;;;;;34.33;6.03;;;;;;;11.27;74.24;101877.31;5011792;28;20109;-90
2022/05/15 01:32:50;;;;;;;20.47;5.73;;;;;;;11.27;74.29;101878.16;5012715;28;20574;-89
2022/05/15 01:35:16;;;;;;;26.38;6.05;;;;;;;11.23;74.55;101881.56;5019411;28;20029;-89
2022/05/15 01:37:41;;;;;;;21.67;6.00;;;;;;;11.15;74.89;101875.50;5020315;28;20112;-89
2022/05/15 01:40:08;;;;;;;29.40;6.00;;;;;;;11.17;74.86;101885.97;5020294;28;20081;-89
2022/05/15 01:42:34;;;;;;;20.98;6.05;;;;;;;11.07;74.98;101878.50;5014618;28;20038;-90
2022/05/15 01:45:00;;;;;;;23.65;6.03;;;;;;;11.06;75.17;101880.41;5012484;28;20033;-89
2022/05/15 01:47:25;;;;;;;22.73;5.43;;;;;;;11.01;75.38;101869.56;5011728;28;20029;-89
2022/05/15 01:49:50;;;;;;;25.60;6.00;;;;;;;11.01;75.07;101874.91;5011756;28;20033;-90
2022/05/15 01:52:16;;;;;;;22.17;5.40;;;;;;;10.94;75.47;101878.78;5011653;28;20061;-89
2022/05/15 01:54:41;;;;;;;31.13;5.93;;;;;;;10.90;75.99;101875.75;5012681;28;20038;-89
2022/05/15 01:57:07;;;;;;;19.00;4.50;;;;;;;10.87;75.92;101874.34;5012674;28;20030;-89
2022/05/15 01:59:32;;;;;;;24.60;5.38;;;;;;;10.84;75.64;101871.31;5012107;28;20124;-89
2022/05/15 02:01:57;;;;;;;27.13;4.83;;;;;;;10.81;75.94;101875.28;5011938;28;20135;-89
2022/05/15 02:04:22;;;;;;;27.50;5.67;;;;;;;10.74;76.16;101870.03;5011947;28;20029;-89
2022/05/15 02:06:48;;;;;;;21.57;5.23;;;;;;;10.73;76.22;101871.09;5011244;28;20033;-89
2022/05/15 02:09:13;;;;;;;20.60;5.10;;;;;;;10.70;75.78;101874.22;5010938;28;20018;-89
2022/05/15 02:11:38;;;;;;;26.43;5.93;;;;;;;10.62;76.33;101861.16;5009378;28;20293;-89
2022/05/15 02:14:05;;;;;;;21.00;5.40;;;;;;;10.60;76.37;101855.22;5011292;28;20022;-89
2022/05/15 02:16:31;;;;;;;17.52;4.88;;;;;;;10.58;76.81;101862.69;5011132;28;20104;-90
2022/05/15 02:18:57;;;;;;;25.83;5.30;;;;;;;10.52;77.03;101861.75;4995366;28;20624;-89
2022/05/15 02:21:22;;;;;;;28.83;5.88;;;;;;;10.51;77.07;101859.31;5012638;28;20029;-89
2022/05/15 02:23:47;;;;;;;26.83;6.10;;;;;;;10.48;77.29;101860.59;5012088;28;20022;-89
2022/05/15 02:26:13;;;;;;;21.70;5.60;;;;;;;10.47;77.22;101867.00;5011477;28;20025;-89
2022/05/15 02:28:38;;;;;;;24.67;5.15;;;;;;;10.44;77.42;101873.63;4992990;28;20026;-88
2022/05/15 02:31:05;;;;;;;25.70;5.27;;;;;;;10.42;77.45;101864.19;5010414;28;20040;-89
2022/05/15 02:33:30;;;;;;;23.55;5.20;;;;;;;10.37;77.53;101867.53;5010807;28;20030;-89
2022/05/15 02:35:55;;;;;;;25.13;5.33;;;;;;;10.36;78.26;101870.44;5010957;28;20032;-89
2022/05/15 02:38:21;;;;;;;21.07;4.87;;;;;;;10.33;77.96;101865.53;5011065;28;20429;-89
2022/05/15 02:40:46;;;;;;;19.33;5.37;;;;;;;10.30;78.43;101869.50;5010108;28;20050;-89
2022/05/15 02:43:11;;;;;;;23.63;5.35;;;;;;;10.26;78.11;101858.44;5010715;28;20062;-89
2022/05/15 02:45:37;;;;;;;21.93;4.93;;;;;;;10.23;78.21;101866.09;5010021;28;20539;-89
2022/05/15 02:48:03;;;;;;;25.47;5.60;;;;;;;10.16;79.33;101863.53;5010970;28;20150;-89
2022/05/15 02:53:13;;;;;;;22.52;5.35;;;;;;;10.13;79.19;101845.25;5011075;28;20044;-89
2022/05/15 02:55:38;;;;;;;20.80;5.57;;;;;;;10.08;79.27;101856.63;5010422;28;20049;-89
2022/05/15 02:58:04;;;;;;;21.77;5.27;;;;;;;10.00;80.26;101854.28;5010164;28;20022;-89
2022/05/15 03:00:30;;;;;;;22.90;5.20;;;;;;;10.01;79.80;101855.94;5009816;28;20035;-89
2022/05/15 03:02:56;;;;;;;30.70;5.50;;;;;;;9.99;80.55;101848.09;5010082;28;20129;-89
2022/05/15 03:05:21;;;;;;;23.43;5.47;;;;;;;9.97;80.15;101844.84;5010521;28;20058;-89
2022/05/15 03:07:49;;;;;;;30.17;5.53;;;;;;;9.94;80.95;101847.16;5010240;28;20030;-89
2022/05/15 03:10:18;;;;;;;29.27;5.82;;;;;;;9.93;80.55;101842.84;5009941;28;20030;-89
2022/05/15 03:12:44;;;;;;;24.33;5.35;;;;;;;9.91;80.58;101842.25;4992520;28;20448;-89
2022/05/15 03:15:13;;;;;;;24.13;5.33;;;;;;;9.86;80.89;101837.59;5010301;28;20025;-89
2022/05/15 03:17:38;;;;;;;29.73;6.78;;;;;;;9.85;81.43;101842.16;5009928;28;20033;-89
2022/05/15 03:20:05;;;;;;;24.20;5.60;;;;;;;9.85;81.25;101836.81;4992261;28;20037;-89
2022/05/15 03:22:30;;;;;;;28.70;5.67;;;;;;;9.83;81.07;101838.06;5009779;28;20272;-89
2022/05/15 03:24:56;;;;;;;26.80;5.43;;;;;;;9.81;81.22;101834.78;5010051;28;20571;-89
2022/05/15 03:27:21;;;;;;;32.83;6.03;;;;;;;9.77;81.48;101837.09;5010088;28;20026;-88
2022/05/15 03:29:46;;;;;;;22.67;5.33;;;;;;;9.73;81.28;101849.31;5014011;28;20079;-89
2022/05/15 03:32:11;;;;;;;26.43;5.30;;;;;;;9.67;81.13;101848.34;5013511;28;20025;-89
2022/05/15 03:34:37;;;;;;;22.30;5.33;;;;;;;9.67;81.25;101844.88;4996420;28;20037;-89
2022/05/15 03:37:02;;;;;;;29.83;6.10;;;;;;;9.66;81.70;101837.91;5014037;28;20029;-89
2022/05/15 03:39:27;;;;;;;23.23;5.30;;;;;;;9.65;81.28;101836.25;4996205;28;20281;-90
2022/05/15 03:41:53;;;;;;;27.60;5.50;;;;;;;9.62;81.63;101842.06;5013037;28;20070;-89
2022/05/15 03:44:19;;;;;;;22.47;5.63;;;;;;;9.56;82.68;101825.06;5014042;28;20030;-89
2022/05/15 03:46:45;;;;;;;22.63;4.97;;;;;;;9.60;81.84;101828.09;5013514;28;20377;-89
2022/05/15 03:49:13;;;;;;;25.48;5.25;;;;;;;9.63;82.04;101835.66;5014205;28;20022;-89
2022/05/15 03:51:39;;;;;;;25.80;5.63;;;;;;;9.60;81.95;101833.44;5013982;28;20595;-89
2022/05/15 03:54:05;;;;;;;20.52;5.18;;;;;;;9.60;81.74;101828.09;5019017;28;20065;-89
2022/05/15 03:59:17;;;;;;;25.20;5.80;;;;;;;9.52;81.80;101835.38;5013797;28;20057;-89
2022/05/15 04:01:43;;;;;;;24.52;4.97;;;;;;;9.49;82.31;101837.69;5012794;28;20461;-89
2022/05/15 04:04:08;;;;;;;22.67;5.40;;;;;;;9.50;82.14;101832.09;5013545;28;20058;-89
2022/05/15 04:06:33;;;;;;;29.97;5.37;;;;;;;9.51;81.84;101835.59;5013459;28;20413;-89
2022/05/15 04:08:59;;;;;;;22.73;5.30;;;;;;;9.51;82.27;101832.94;5013429;28;20056;-89
2022/05/15 04:11:24;;;;;;;20.00;5.23;;;;;;;9.50;82.83;101837.44;5012771;28;20058;-89
2022/05/15 04:13:50;;;;;;;25.23;5.73;;;;;;;9.52;82.78;101840.72;5013989;28;20029;-89
2022/05/15 04:16:15;;;;;;;20.43;5.07;;;;;;;9.52;82.47;101843.41;5013497;28;20038;-90
2022/05/15 04:18:42;;;;;;;26.23;5.55;;;;;;;9.53;83.07;101844.22;5015689;28;20026;-89
2022/05/15 04:21:08;;;;;;;22.48;5.35;;;;;;;9.57;82.70;101840.06;5020046;28;20069;-89
2022/05/15 04:23:33;;;;;;;22.03;5.50;;;;;;;9.69;82.39;101858.81;5018523;28;20021;-89
2022/05/15 04:25:58;;;;;;;21.43;5.30;;;;;;;9.74;82.04;101853.63;5014983;28;20034;-89
2022/05/15 04:28:24;;;;;;;26.00;5.10;;;;;;;9.80;81.76;101860.75;5013494;28;20041;-89
2022/05/15 04:30:49;;;;;;;24.07;5.40;;;;;;;9.85;81.87;101854.72;5012417;28;20133;-90
2022/05/15 04:33:15;;;;;;;22.80;4.93;;;;;;;9.88;81.36;101861.47;5013173;28;21119;-89
2022/05/15 04:35:40;;;;;;;27.27;5.30;;;;;;;9.90;81.42;101852.19;5012866;28;20025;-89
2022/05/15 04:38:10;;;;;;;29.00;5.68;;;;;;;9.95;80.80;101846.13;5012735;28;20385;-89
2022/05/15 04:40:35;;;;;;;27.13;5.72;;;;;;;9.97;81.11;101844.84;5012070;28;20122;-89
2022/05/15 04:43:00;;;;;;;28.13;5.40;;;;;;;9.98;82.15;101845.69;4995369;28;20120;-89
2022/05/15 04:45:26;;;;;;;26.63;5.50;;;;;;;10.07;81.30;101843.47;5012670;28;20030;-89
2022/05/15 04:47:52;;;;;;;32.78;6.30;;;;;;;10.11;82.01;101850.03;5012987;28;20025;-89
2022/05/15 04:50:19;;;;;;;27.13;5.75;;;;;;;10.20;81.52;101847.81;5011977;28;20033;-89
2022/05/15 04:52:46;;;;;;;26.33;6.53;;;;;;;10.48;81.52;101841.84;5012504;28;20033;-87
2022/05/15 04:55:12;;;;;;;29.73;6.33;;;;;;;11.19;79.01;101843.63;5012915;28;20026;-88
2022/05/15 04:57:38;;;;;;;39.30;6.70;;;;;;;11.94;76.62;101847.19;5012783;28;20280;-89
2022/05/15 05:00:07;;;;;;;20.25;5.90;;;;;;;12.57;74.37;101846.34;5012099;28;20021;-88
2022/05/15 05:02:32;;;;;;;35.38;5.85;;;;;;;13.26;70.93;101845.09;4994377;28;20167;-89
2022/05/15 05:04:59;;;;;;;28.07;5.90;;;;;;;13.92;68.71;101851.47;5012478;28;20109;-88
2022/05/15 05:07:28;;;;;;;21.90;5.20;;;;;;;14.56;66.09;101860.63;5011933;28;20022;-88
2022/05/15 05:09:53;;;;;;;23.95;5.53;;;;;;;15.17;64.48;101851.25;5012395;28;20142;-88
2022/05/15 05:12:19;;;;;;;19.47;5.30;;;;;;;15.70;62.69;101859.25;5011727;28;20473;-89
2022/05/15 05:14:44;;;;;;;19.02;4.93;;;;;;;16.03;60.22;101865.28;5012199;28;20030;-88
2022/05/15 05:17:09;;;;;;;26.90;5.63;;;;;;;16.31;60.13;101865.84;5012117;28;20026;-88
2022/05/15 05:19:35;;;;;;;21.03;5.10;;;;;;;16.61;58.95;101874.19;5012195;28;20424;-89
2022/05/15 05:22:00;;;;;;;21.87;5.90;;;;;;;16.90;58.08;101866.25;5011345;28;20034;-89
2022/05/15 05:24:25;;;;;;;22.20;5.30;;;;;;;16.99;56.62;101871.94;5011704;28;20030;-89
2022/05/15 05:27:03;;;;;;;21.93;5.07;;;;;;;17.00;57.69;101870.84;5012201;28;20030;-89
2022/05/15 05:29:28;;;;;;;23.95;5.47;;;;;;;17.04;57.15;101874.63;5011793;28;20021;-89
2022/05/15 05:31:54;;;;;;;27.00;6.05;;;;;;;17.16;56.91;101862.69;5011635;28;20417;-89
2022/05/15 05:34:20;;;;;;;23.37;5.47;;;;;;;17.16;56.11;101862.69;5011795;28;20589;-89
2022/05/15 05:36:45;;;;;;;23.58;5.85;;;;;;;16.97;57.47;101868.72;5011768;28;20034;-88
2022/05/15 05:39:11;;;;;;;18.47;5.67;;;;;;;16.65;58.21;101864.41;5011724;28;20497;-88
2022/05/15 05:41:36;;;;;;;29.47;6.20;;;;;;;16.41;59.03;101866.91;5011168;28;20022;-89
2022/05/15 05:44:01;;;;;;;21.10;5.80;;;;;;;16.33;59.48;101866.38;5011859;28;20116;-88
2022/05/15 05:46:27;;;;;;;26.63;6.33;;;;;;;15.99;60.42;101849.88;5010964;28;20045;-89
2022/05/15 05:48:53;;;;;;;25.38;6.72;;;;;;;15.81;61.09;101859.25;5011833;28;20152;-89
2022/05/15 05:51:19;;;;;;;19.48;5.38;;;;;;;15.59;61.54;101858.41;5010150;28;20120;-89
2022/05/15 05:53:44;;;;;;;22.23;6.07;;;;;;;15.41;62.98;101861.63;5011631;28;20042;-89
2022/05/15 05:56:09;;;;;;;29.60;6.77;;;;;;;15.27;63.53;101851.31;5011546;28;20037;-90
2022/05/15 05:58:36;;;;;;;22.23;6.97;;;;;;;15.16;63.64;101856.94;5011333;28;20030;-89
2022/05/15 06:01:01;;;;;;;29.63;7.35;;;;;;;15.03;64.55;101861.75;5010891;28;20175;-90
2022/05/15 06:06:11;;;;;;;22.40;6.30;;;;;;;14.90;65.51;101854.94;5011784;28;20041;-89
2022/05/15 06:08:36;;;;;;;26.60;7.17;;;;;;;14.88;66.52;101862.47;5011288;28;20030;-90
2022/05/15 06:11:01;;;;;;;24.55;6.57;;;;;;;14.86;66.51;101861.91;5015105;28;20033;-90
2022/05/15 06:13:26;;;;;;;25.97;7.50;;;;;;;14.87;66.66;101860.84;5011176;28;20030;-89
2022/05/15 06:15:53;;;;;;;26.87;7.40;;;;;;;14.92;66.67;101866.28;5011335;28;20083;-88
2022/05/15 06:18:18;;;;;;;23.98;7.50;;;;;;;14.92;66.49;101851.97;5011354;28;20573;-89
2022/05/15 06:20:45;;;;;;;22.80;7.30;;;;;;;14.96;66.30;101844.97;5010200;28;20022;-88
2022/05/15 06:23:10;;;;;;;18.20;7.25;;;;;;;15.09;66.65;101849.88;5011412;28;20060;-89
2022/05/15 06:25:35;;;;;;;18.93;7.47;;;;;;;15.16;65.92;101856.94;5010793;28;20026;-88
2022/05/15 06:28:01;;;;;;;26.07;7.13;;;;;;;15.17;66.22;101856.66;5012084;28;20025;-89
2022/05/15 06:30:27;;;;;;;27.10;7.82;;;;;;;15.35;67.15;101854.56;5010592;28;20119;-89
2022/05/15 06:32:52;;;;;;;21.00;7.87;;;;;;;15.51;65.79;101856.25;5010953;28;20724;-89
2022/05/15 06:35:18;;;;;;;25.98;8.07;;;;;;;15.67;65.28;101865.19;5011328;28;20470;-88
2022/05/15 06:37:43;;;;;;;22.10;7.00;;;;;;;15.74;65.11;101857.66;5010945;28;20030;-89
2022/05/15 06:40:15;;;;;;;24.17;7.97;;;;;;;15.82;64.05;101855.47;5010755;28;20041;-88
2022/05/15 06:42:41;;;;;;;25.90;8.52;;;;;;;15.89;64.92;101851.47;4992664;28;20439;-89
2022/05/15 06:45:07;;;;;;;25.50;9.30;;;;;;;16.05;65.03;101854.22;5010808;28;20378;-89
2022/05/15 06:47:33;;;;;;;24.15;8.02;;;;;;;16.13;63.48;101860.97;5010573;28;20018;-88
2022/05/15 06:49:59;;;;;;;19.77;8.18;;;;;;;16.16;63.19;101855.81;5011380;28;20029;-89
2022/05/15 06:52:25;;;;;;;26.03;9.20;;;;;;;16.32;62.64;101862.03;5011927;28;20053;-89
2022/05/15 06:54:50;;;;;;;26.52;8.50;;;;;;;16.41;62.87;101864.19;5013787;28;20062;-88
2022/05/15 06:57:31;;;;;;;33.53;8.87;;;;;;;16.50;62.66;101855.25;5015920;28;20026;-89
2022/05/15 07:00:06;;;;;;;25.67;8.65;;;;;;;16.69;62.19;101849.25;5012838;28;20022;-89
2022/05/15 07:02:31;;;;;;;27.83;9.30;;;;;;;16.81;62.16;101854.38;5011524;28;20076;-89
2022/05/15 07:04:57;;;;;;;28.33;8.80;;;;;;;16.88;62.33;101860.31;5010612;28;20417;-89
2022/05/15 07:07:23;;;;;;;27.93;9.17;;;;;;;16.95;61.25;101851.94;5010312;28;20080;-88
2022/05/15 07:09:48;;;;;;;21.58;8.63;;;;;;;17.04;61.63;101863.81;5010304;28;20389;-89
2022/05/15 07:12:14;;;;;;;20.93;8.43;;;;;;;17.16;60.71;101851.88;5010121;28;20025;-89
2022/05/15 07:14:39;;;;;;;27.80;8.90;;;;;;;17.31;60.92;101861.78;5010297;28;20113;-89
2022/05/15 07:17:05;;;;;;;21.77;8.23;;;;;;;17.48;60.51;101862.25;5010457;28;20076;-89
2022/05/15 07:19:31;;;;;;;19.23;8.93;;;;;;;17.60;59.76;101864.63;5010152;28;20457;-89
2022/05/15 07:21:56;;;;;;;23.43;8.23;;;;;;;17.70;59.22;101863.75;5010155;28;20109;-90
2022/05/15 07:24:22;;;;;;;20.63;8.80;;;;;;;17.73;58.67;101870.50;5010629;28;20105;-89
2022/05/15 07:26:48;;;;;;;21.83;9.17;;;;;;;17.81;59.11;101869.91;5010205;28;20018;-89
2022/05/15 07:29:14;;;;;;;22.37;8.83;;;;;;;17.93;58.61;101867.66;5010739;28;20029;-90
2022/05/15 07:31:40;;;;;;;24.83;8.70;;;;;;;18.12;58.39;101872.44;5009623;28;20057;-90
2022/05/15 07:34:07;;;;;;;21.40;9.15;;;;;;;18.21;56.76;101868.03;5010518;28;20030;-90
2022/05/15 07:36:32;;;;;;;23.58;8.90;;;;;;;18.39;56.49;101874.63;5010012;28;20385;-89
2022/05/15 07:38:57;;;;;;;25.60;9.77;;;;;;;18.67;56.23;101874.09;5010423;28;20026;-90
2022/05/15 07:41:23;;;;;;;23.27;9.33;;;;;;;18.75;55.33;101857.19;5009545;28;20376;-89
2022/05/15 07:43:48;;;;;;;23.87;8.60;;;;;;;18.96;55.42;101865.16;5010153;28;20052;-89
2022/05/15 07:46:13;;;;;;;24.33;8.80;;;;;;;19.11;55.36;101864.13;5010477;28;20127;-89
2022/05/15 07:48:39;;;;;;;27.97;9.93;;;;;;;19.22;54.40;101863.72;5009924;28;20026;-89
2022/05/15 07:51:04;;;;;;;21.80;9.70;;;;;;;19.38;54.19;101871.66;5009769;28;20328;-89
2022/05/15 07:53:30;;;;;;;23.98;9.13;;;;;;;19.49;53.27;101861.47;5010456;28;20117;-89
2022/05/15 07:55:59;;;;;;;20.90;9.03;;;;;;;19.62;54.05;101859.94;5009977;28;20525;-89
2022/05/15 07:58:25;;;;;;;19.15;8.95;;;;;;;19.66;52.59;101856.31;5010404;28;20381;-89
2022/05/15 08:00:52;;;;;;;23.40;9.50;;;;;;;19.77;52.28;101859.69;5009967;28;20045;-89
2022/05/15 08:03:17;;;;;;;26.63;9.30;;;;;;;19.95;52.79;101863.53;5010206;28;20022;-89
2022/05/15 08:08:26;;;;;;;26.52;9.75;;;;;;;20.26;52.04;101867.66;5010109;28;20103;-88
2022/05/15 08:10:54;;;;;;;21.83;9.50;;;;;;;20.27;51.44;101856.47;5009938;28;20038;-90
2022/05/15 08:13:25;;;;;;;23.50;9.20;;;;;;;20.49;50.78;101862.34;5010903;28;20489;-90
2022/05/15 08:15:51;;;;;;;20.30;8.80;;;;;;;20.64;50.04;101859.34;5013860;28;20034;-90
2022/05/15 08:24:01;;;;;;;23.08;9.52;;;;;;;21.05;49.57;101841.41;5012348;28;20193;-90
2022/05/15 08:26:29;;;;;;;22.63;9.00;;;;;;;21.15;48.40;101832.22;5014929;28;20143;-89
2022/05/15 08:28:55;;;;;;;16.15;7.93;;;;;;;21.29;47.92;101837.63;5017579;28;20037;-90
2022/05/15 08:31:24;;;;;;;26.98;9.25;;;;;;;21.40;48.49;101832.75;5012020;28;20029;-90
2022/05/15 08:33:50;;;;;;;18.48;8.98;;;;;;;21.44;47.73;101826.41;4996310;28;20401;-90
2022/05/15 08:36:17;;;;;;;17.23;8.15;;;;;;;21.54;47.27;101824.53;5014001;28;20026;-90
2022/05/15 08:38:44;;;;;;;15.63;7.30;;;;;;;21.69;45.69;101823.41;5013103;28;20115;-91
2022/05/15 08:41:31;;;;;;;16.10;7.67;;;;;;;21.84;44.98;101819.47;5013181;28;20277;-90
2022/05/15 08:44:21;;;;;;;19.00;7.10;;;;;;;22.02;45.16;101820.41;5013178;28;20042;-90
2022/05/15 08:47:15;;;;;;;15.05;7.05;;;;;;;22.08;42.30;101809.06;5013288;28;20018;-90
2022/05/15 08:49:48;;;;;;;16.55;7.45;;;;;;;22.21;43.51;101812.00;5012969;28;20046;-90
2022/05/15 08:52:24;;;;;;;20.70;7.97;;;;;;;22.31;43.02;101808.19;5013117;28;20042;-91
2022/05/15 08:55:00;;;;;;;19.08;7.18;;;;;;;22.37;43.57;101805.00;5016727;28;20113;-90
2022/05/15 08:57:50;;;;;;;16.85;7.15;;;;;;;22.52;43.52;101801.06;5013398;28;20029;-91
2022/05/15 09:03:06;;;;;;;16.80;6.95;;;;;;;22.73;40.75;101805.97;4991407;28;20461;-91
2022/05/15 09:05:51;;;;;;;17.83;6.57;;;;;;;22.67;40.82;101805.31;4993083;28;20465;-88
2022/05/15 09:08:50;;;;;;;20.47;6.80;;;;;;;22.76;40.06;101805.34;4993511;28;20309;-91
2022/05/15 09:11:49;;;;;;;19.40;6.47;;;;;;;22.89;38.91;101805.53;4992644;28;20041;-89
2022/05/15 09:14:21;;;;;;;16.30;6.13;;;;;;;22.78;39.43;101794.91;4983247;28;20030;-89
2022/05/15 09:16:59;;;;;;;15.63;6.30;;;;;;;22.96;40.36;101803.13;4992497;28;20030;-89
2022/05/15 09:19:25;;;;;;;12.18;5.65;;;;;;;23.03;39.55;101797.19;4992643;28;20078;-89
2022/05/15 09:21:56;;;;;;;15.43;5.75;;;;;;;23.21;38.52;101804.31;4992661;28;20097;-89
2022/05/15 09:24:42;;;;;;;17.93;5.50;;;;;;;23.34;38.71;101802.56;4993087;28;20030;-91
2022/05/15 09:27:12;;;;;;;14.57;5.30;;;;;;;23.39;38.11;101807.84;4991981;28;20292;-89
2022/05/15 09:29:38;;;;;;;17.70;5.32;;;;;;;23.51;36.95;101798.19;4994618;28;20034;-91
2022/05/15 09:32:06;;;;;;;12.70;5.50;;;;;;;23.54;36.11;101800.28;4995263;28;20030;-88
2022/05/15 09:34:36;;;;;;;14.65;5.32;;;;;;;23.51;36.11;101792.72;4992990;28;20482;-88
2022/05/15 09:39:52;;;;;;;9.52;4.68;;;;;;;23.58;33.89;101791.13;4997613;28;20037;-88
2022/05/15 09:45:07;;;;;;;15.80;4.30;;;;;;;23.90;34.94;101782.69;4992818;28;20141;-91
2022/05/15 09:47:40;;;;;;;11.60;4.40;;;;;;;24.08;34.81;101796.34;4992412;28;20277;-92
2022/05/15 09:50:29;;;;;;;13.37;4.90;;;;;;;24.18;34.55;101791.31;4992386;28;20022;-89
2022/05/15 09:52:56;;;;;;;10.18;4.50;;;;;;;24.16;33.42;101776.34;4992488;28;20046;-89
2022/05/15 09:55:25;;;;;;;10.65;5.15;;;;;;;24.22;33.86;101779.69;4992324;28;20030;-89
2022/05/15 09:57:57;;;;;;;15.73;5.03;;;;;;;24.39;34.12;101776.09;4992175;28;20121;-90
2022/05/15 10:00:25;;;;;;;16.25;4.82;;;;;;;24.44;33.35;101776.69;4991500;28;20019;-88
2022/05/15 10:02:53;;;;;;;13.57;3.85;;;;;;;24.31;32.03;101773.06;4992218;28;20466;-89
2022/05/15 10:05:28;;;;;;;17.02;4.50;;;;;;;24.22;32.95;101758.59;4993760;28;20033;-89
2022/05/15 10:08:04;;;;;;;17.40;4.82;;;;;;;24.28;31.92;101772.91;4992485;28;20097;-90
2022/05/15 10:10:45;;;;;;;16.67;4.63;;;;;;;24.44;33.59;101773.16;4990302;28;20053;-89
2022/05/15 10:13:20;;;;;;;12.47;3.90;;;;;;;24.68;32.90;101775.28;4992385;28;20460;-90
2022/05/15 10:15:49;;;;;;;11.27;4.30;;;;;;;24.91;31.31;101775.03;4991002;28;20278;-89
2022/05/15 10:18:22;;;;;;;14.30;4.47;;;;;;;25.01;30.68;101765.59;4991775;28;20026;-90
2022/05/15 10:20:52;;;;;;;14.57;4.13;;;;;;;25.10;30.84;101775.34;4996186;28;20092;-89
2022/05/15 10:23:27;;;;;;;11.55;4.57;;;;;;;25.05;31.01;101763.75;5000348;28;20027;-89
2022/05/15 10:25:59;;;;;;;15.07;4.57;;;;;;;25.12;30.64;101749.50;4999182;28;20077;-90
2022/05/15 10:28:28;;;;;;;16.02;4.60;;;;;;;25.18;31.14;101764.63;4999773;28;20026;-90
2022/05/15 10:31:17;;;;;;;13.80;4.63;;;;;;;25.36;31.14;101765.31;5000037;28;20684;-89
2022/05/15 10:33:46;;;;;;;15.20;4.30;;;;;;;25.35;30.39;101763.69;4994574;28;20109;-91
2022/05/15 10:36:24;;;;;;;11.05;4.15;;;;;;;25.43;31.33;101754.59;4998697;28;20049;-89
2022/05/15 10:39:01;;;;;;;16.43;3.77;;;;;;;25.57;30.33;101753.50;5002057;28;20042;-90
2022/05/15 10:41:50;;;;;;;11.23;4.23;;;;;;;25.81;30.36;101748.06;5004782;28;20277;-90
2022/05/15 10:44:39;;;;;;;15.25;4.05;;;;;;;25.88;30.35;101752.22;5004667;28;20061;-89
2022/05/15 10:47:11;;;;;;;7.63;3.78;;;;;;;25.85;29.74;101749.00;5006566;28;20057;-89
2022/05/15 10:49:51;;;;;;;16.88;4.07;;;;;;;25.72;29.91;101741.88;4999117;28;20110;-89
2022/05/15 10:52:42;;;;;;;11.32;4.15;;;;;;;25.57;30.17;101732.34;4995995;28;20035;-90
2022/05/15 10:58:25;;;;;;;11.25;3.92;;;;;;;25.34;29.46;101723.69;4992135;28;20112;-89
2022/05/15 11:01:13;;;;;;;10.05;3.60;;;;;;;25.50;30.22;101732.09;4991614;28;20120;-90
2022/05/15 11:04:05;;;;;;;12.32;3.85;;;;;;;25.59;29.58;101730.06;4991922;28;20030;-88
2022/05/15 11:06:40;;;;;;;9.83;3.80;;;;;;;25.65;29.32;101728.72;4992414;28;20141;-90
2022/05/15 11:09:10;;;;;;;14.07;3.80;;;;;;;25.76;29.04;101731.03;4991812;28;20269;-90
2022/05/15 11:11:57;;;;;;;17.75;3.83;;;;;;;25.95;28.51;101720.31;4993161;28;20030;-90
2022/05/15 11:14:31;;;;;;;11.98;3.97;;;;;;;26.03;28.40;101729.56;4990359;28;20058;-90
2022/05/15 11:17:35;;;;;;;15.07;3.80;;;;;;;26.05;29.23;101720.97;4991674;28;20050;-89
2022/05/15 11:20:10;;;;;;;11.13;3.15;;;;;;;25.94;28.08;101723.38;4991971;28;20019;-90
2022/05/15 11:22:52;;;;;;;14.40;3.45;;;;;;;26.02;29.07;101710.69;4991636;28;20038;-90
2022/05/15 11:25:30;;;;;;;12.82;3.20;;;;;;;26.12;28.15;101707.53;4992406;28;20089;-90
2022/05/15 11:28:06;;;;;;;14.85;2.97;;;;;;;26.46;28.98;101702.69;4991933;28;20046;-90
2022/05/15 11:30:36;;;;;;;9.35;3.50;;;;;;;26.51;27.91;101707.13;4990538;28;20022;-90
2022/05/15 11:33:08;;;;;;;13.60;3.43;;;;;;;26.68;27.92;101695.88;4993805;28;20120;-90
2022/05/15 11:35:40;;;;;;;13.23;3.90;;;;;;;26.69;28.31;101691.19;4992087;28;20273;-90
2022/05/15 11:38:17;;;;;;;10.75;3.30;;;;;;;26.57;28.13;101678.28;4998243;28;20026;-90
2022/05/15 11:40:46;;;;;;;11.65;3.80;;;;;;;26.63;27.64;101679.63;4997466;28;20034;-91
2022/05/15 11:43:26;;;;;;;11.73;4.00;;;;;;;26.70;27.33;101677.09;4992049;28;20488;-91
2022/05/15 11:45:58;;;;;;;13.65;3.58;;;;;;;26.79;27.41;101676.16;4992315;28;20073;-90
2022/05/15 11:48:50;;;;;;;13.68;4.20;;;;;;;26.88;27.05;101672.13;4990685;28;20026;-90
2022/05/15 11:51:16;;;;;;;12.23;3.53;;;;;;;27.27;27.05;101665.31;4992385;28;20085;-90
2022/05/15 11:53:59;;;;;;;7.53;3.40;;;;;;;27.48;27.71;101659.59;4994688;28;20042;-90
2022/05/15 11:56:42;;;;;;;11.90;3.70;;;;;;;27.41;26.26;101657.41;4995334;28;20109;-90